Time;durP1;ratioP1;P1;durP2;ratioP2;P2;SDS_P1;SDS_P2;PMS_P1;PMS_P2;Temp;Humidity;BMP_temperature;BMP_pressure;BME280_temperature;BME280_humidity;BME280_pressure;Samples;Min_cycle;Max_cycle;Signal;HPM_P1;HPM_P2
2023/12/22 00:01:03;;;;;;;3.75;0.60;;;;;;;;;;5090420;28;20032;-67
2023/12/22 00:03:29;;;;;;;4.15;0.70;;;;;;;;;;5089845;28;20101;-66
2023/12/22 00:05:54;;;;;;;2.70;0.85;;;;;;;;;;5089816;28;20452;-66
2023/12/22 00:08:19;;;;;;;1.75;0.80;;;;;;;;;;5089472;28;20038;-66
2023/12/22 00:10:45;;;;;;;1.45;0.77;;;;;;;;;;5089915;28;20054;-66
2023/12/22 00:13:10;;;;;;;4.28;0.70;;;;;;;;;;5089572;28;20110;-66
2023/12/22 00:15:35;;;;;;;2.72;0.70;;;;;;;;;;5095506;28;20119;-66
2023/12/22 00:18:01;;;;;;;4.10;1.10;;;;;;;;;;5090103;28;20044;-66
2023/12/22 00:20:26;;;;;;;3.33;0.82;;;;;;;;;;5089340;28;20039;-66
2023/12/22 00:22:51;;;;;;;1.98;0.70;;;;;;;;;;5090360;28;20032;-65
2023/12/22 00:25:17;;;;;;;3.03;0.77;;;;;;;;;;5090799;28;20047;-65
2023/12/22 00:27:42;;;;;;;4.10;0.57;;;;;;;;;;5089675;28;20032;-65
2023/12/22 00:30:08;;;;;;;2.83;0.60;;;;;;;;;;5082318;28;20039;-65
2023/12/22 00:32:33;;;;;;;3.92;1.02;;;;;;;;;;5093661;28;20044;-66
2023/12/22 00:34:59;;;;;;;3.17;0.68;;;;;;;;;;5095817;28;20050;-65
2023/12/22 00:37:24;;;;;;;4.35;0.77;;;;;;;;;;5098089;28;20502;-66
2023/12/22 00:39:49;;;;;;;2.15;0.80;;;;;;;;;;5095114;28;20036;-66
2023/12/22 00:42:15;;;;;;;3.67;0.70;;;;;;;;;;5093470;28;20127;-67
2023/12/22 00:44:40;;;;;;;1.75;0.82;;;;;;;;;;5093750;28;20185;-65
2023/12/22 00:47:05;;;;;;;5.10;1.23;;;;;;;;;;5094452;28;20089;-66
2023/12/22 00:49:31;;;;;;;2.22;0.50;;;;;;;;;;5099744;28;20031;-65
2023/12/22 00:51:56;;;;;;;3.65;0.95;;;;;;;;;;5093474;28;20542;-66
2023/12/22 00:54:21;;;;;;;1.40;0.47;;;;;;;;;;5093429;28;20430;-65
2023/12/22 00:56:46;;;;;;;1.38;0.50;;;;;;;;;;5092699;28;20032;-66
2023/12/22 00:59:12;;;;;;;2.67;0.63;;;;;;;;;;5090546;28;20349;-66
2023/12/22 01:01:37;;;;;;;0.73;0.30;;;;;;;;;;5092958;28;20467;-65
2023/12/22 01:04:03;;;;;;;1.90;0.40;;;;;;;;;;5067943;28;20384;-65
2023/12/22 01:06:28;;;;;;;4.88;0.77;;;;;;;;;;5091373;28;20482;-66
2023/12/22 01:08:53;;;;;;;1.00;0.40;;;;;;;;;;5092450;28;20081;-66
2023/12/22 01:11:19;;;;;;;1.35;0.45;;;;;;;;;;5092138;28;20123;-66
2023/12/22 01:13:44;;;;;;;1.15;0.30;;;;;;;;;;5092550;28;20082;-66
2023/12/22 01:16:10;;;;;;;1.48;0.40;;;;;;;;;;5092720;28;20047;-66
2023/12/22 01:18:35;;;;;;;1.70;0.40;;;;;;;;;;5075923;28;20032;-66
2023/12/22 01:21:00;;;;;;;0.95;0.30;;;;;;;;;;5074910;28;20032;-65
2023/12/22 01:23:26;;;;;;;0.82;0.35;;;;;;;;;;5092899;28;20032;-65
2023/12/22 01:25:51;;;;;;;0.65;0.40;;;;;;;;;;5092762;28;20441;-66
2023/12/22 01:28:17;;;;;;;1.60;0.40;;;;;;;;;;5093282;28;20618;-65
2023/12/22 01:30:42;;;;;;;0.88;0.32;;;;;;;;;;5093058;28;20130;-66
2023/12/22 01:33:07;;;;;;;1.13;0.30;;;;;;;;;;5092340;28;20032;-65
2023/12/22 01:35:33;;;;;;;1.55;0.30;;;;;;;;;;5092966;28;20111;-66
2023/12/22 01:37:58;;;;;;;0.82;0.38;;;;;;;;;;5092679;28;20471;-66
2023/12/22 01:40:23;;;;;;;1.45;0.32;;;;;;;;;;5092835;28;20518;-66
2023/12/22 01:42:49;;;;;;;0.50;0.30;;;;;;;;;;5091787;28;20071;-66
2023/12/22 01:45:14;;;;;;;2.65;0.50;;;;;;;;;;5092481;28;20047;-65
2023/12/22 01:47:40;;;;;;;1.05;0.50;;;;;;;;;;5091843;28;20115;-65
2023/12/22 01:50:05;;;;;;;2.67;0.50;;;;;;;;;;5092943;28;20032;-65
2023/12/22 01:52:31;;;;;;;0.68;0.32;;;;;;;;;;5091845;28;20078;-65
2023/12/22 01:54:56;;;;;;;0.75;0.30;;;;;;;;;;5074445;28;20032;-64
2023/12/22 01:57:21;;;;;;;1.98;0.45;;;;;;;;;;5073385;28;20598;-66
2023/12/22 01:59:48;;;;;;;1.42;0.40;;;;;;;;;;5092495;28;20132;-65
2023/12/22 02:02:13;;;;;;;1.75;0.43;;;;;;;;;;5092015;28;20051;-65
2023/12/22 02:04:39;;;;;;;1.15;0.40;;;;;;;;;;5092082;28;20032;-66
2023/12/22 02:07:08;;;;;;;1.15;0.40;;;;;;;;;;5092215;28;20059;-65
2023/12/22 02:09:33;;;;;;;2.80;0.35;;;;;;;;;;5090684;28;20031;-65
2023/12/22 02:11:58;;;;;;;1.10;0.50;;;;;;;;;;5088721;28;20357;-65
2023/12/22 02:14:24;;;;;;;0.68;0.40;;;;;;;;;;5092159;28;20040;-65
2023/12/22 02:16:57;;;;;;;1.90;0.40;;;;;;;;;;5092068;28;20032;-66
2023/12/22 02:19:37;;;;;;;8.13;0.20;;;;;;;;;;5072428;28;20020;-66
2023/12/22 02:22:04;;;;;;;1.77;0.43;;;;;;;;;;5091665;28;20040;-66
2023/12/22 02:24:33;;;;;;;0.20;0.17;;;;;;;;;;5091823;28;20063;-66
2023/12/22 02:27:03;;;;;;;0.20;0.20;;;;;;;;;;5090988;28;20063;-66
2023/12/22 02:29:31;;;;;;;0.73;0.35;;;;;;;;;;5083085;28;20106;-65
2023/12/22 02:31:58;;;;;;;2.80;0.30;;;;;;;;;;5091117;28;20046;-66
2023/12/22 02:34:23;;;;;;;0.95;0.30;;;;;;;;;;5091231;28;20032;-65
2023/12/22 02:36:49;;;;;;;1.98;0.30;;;;;;;;;;5072005;28;20155;-66
2023/12/22 02:39:14;;;;;;;0.98;0.20;;;;;;;;;;5089805;28;20039;-65
2023/12/22 02:41:40;;;;;;;1.75;0.40;;;;;;;;;;5073552;28;20511;-66
2023/12/22 02:44:06;;;;;;;3.13;0.38;;;;;;;;;;5072703;28;20475;-66
2023/12/22 02:46:31;;;;;;;0.95;0.40;;;;;;;;;;5089395;28;20053;-65
2023/12/22 02:48:57;;;;;;;0.80;0.35;;;;;;;;;;5091288;28;20027;-66
2023/12/22 02:51:22;;;;;;;0.90;0.35;;;;;;;;;;5089175;28;20082;-65
2023/12/22 02:53:47;;;;;;;0.55;0.22;;;;;;;;;;5090775;28;20028;-65
2023/12/22 02:56:13;;;;;;;0.93;0.40;;;;;;;;;;5091102;28;20027;-66
2023/12/22 02:58:38;;;;;;;1.98;0.85;;;;;;;;;;5090644;28;20040;-66
2023/12/22 03:01:03;;;;;;;2.20;0.30;;;;;;;;;;5090880;28;20115;-66
2023/12/22 03:03:29;;;;;;;0.90;0.50;;;;;;;;;;5073121;28;20119;-66
2023/12/22 03:05:54;;;;;;;1.45;0.40;;;;;;;;;;5090974;28;20040;-66
2023/12/22 03:08:19;;;;;;;2.70;0.40;;;;;;;;;;5090512;28;20092;-66
2023/12/22 03:10:45;;;;;;;2.40;0.40;;;;;;;;;;5088364;28;20032;-65
2023/12/22 03:13:10;;;;;;;0.50;0.25;;;;;;;;;;5090908;28;20044;-66
2023/12/22 03:15:35;;;;;;;1.27;0.57;;;;;;;;;;5090629;28;20040;-65
2023/12/22 03:18:01;;;;;;;1.85;0.20;;;;;;;;;;5088664;28;20043;-65
2023/12/22 03:20:26;;;;;;;1.23;0.30;;;;;;;;;;5091114;28;20046;-65
2023/12/22 03:22:51;;;;;;;1.27;0.30;;;;;;;;;;5090608;28;20028;-66
2023/12/22 03:25:16;;;;;;;1.70;0.45;;;;;;;;;;5090969;28;20043;-66
2023/12/22 03:27:42;;;;;;;1.63;0.30;;;;;;;;;;5090085;28;20043;-65
2023/12/22 03:30:08;;;;;;;0.47;0.40;;;;;;;;;;5090614;28;20043;-66
2023/12/22 03:32:33;;;;;;;1.33;0.40;;;;;;;;;;5090087;28;20074;-66
2023/12/22 03:34:58;;;;;;;0.13;0.13;;;;;;;;;;5090656;28;20032;-66
2023/12/22 03:37:23;;;;;;;2.92;0.70;;;;;;;;;;5090621;28;20038;-66
2023/12/22 03:39:49;;;;;;;1.48;0.35;;;;;;;;;;5090838;28;20123;-66
2023/12/22 03:42:14;;;;;;;1.70;0.38;;;;;;;;;;5090447;28;20036;-66
2023/12/22 03:44:40;;;;;;;0.38;0.30;;;;;;;;;;5090584;28;20652;-66
2023/12/22 03:47:05;;;;;;;1.23;0.50;;;;;;;;;;5090284;28;20468;-66
2023/12/22 03:49:30;;;;;;;0.47;0.30;;;;;;;;;;5083828;28;20131;-65
2023/12/22 03:51:55;;;;;;;1.85;0.40;;;;;;;;;;5089368;28;20123;-66
2023/12/22 03:54:21;;;;;;;0.57;0.20;;;;;;;;;;5082661;28;20047;-66
2023/12/22 03:56:46;;;;;;;1.33;0.20;;;;;;;;;;5089427;28;20078;-66
2023/12/22 03:59:13;;;;;;;1.75;0.40;;;;;;;;;;5089755;28;20044;-66
2023/12/22 04:01:38;;;;;;;0.82;0.22;;;;;;;;;;5090473;28;20032;-66
2023/12/22 04:04:04;;;;;;;0.63;0.22;;;;;;;;;;5089203;28;20070;-66
2023/12/22 04:06:29;;;;;;;0.22;0.20;;;;;;;;;;5088415;28;20036;-66
2023/12/22 04:08:54;;;;;;;0.77;0.40;;;;;;;;;;5089323;28;20085;-66
2023/12/22 04:11:19;;;;;;;0.88;0.17;;;;;;;;;;5087703;28;20028;-65
2023/12/22 04:13:45;;;;;;;1.95;0.30;;;;;;;;;;5090295;28;20391;-65
2023/12/22 04:16:10;;;;;;;1.65;0.40;;;;;;;;;;5089988;28;20418;-65
2023/12/22 04:18:35;;;;;;;0.95;0.20;;;;;;;;;;5072211;28;20035;-66
2023/12/22 04:21:01;;;;;;;0.50;0.28;;;;;;;;;;5089719;28;20388;-66
2023/12/22 04:23:26;;;;;;;0.90;0.20;;;;;;;;;;5089937;28;20386;-65
2023/12/22 04:25:51;;;;;;;2.90;0.43;;;;;;;;;;5089954;28;20055;-66
2023/12/22 04:28:17;;;;;;;1.23;0.40;;;;;;;;;;5090073;28;20048;-66
2023/12/22 04:30:42;;;;;;;2.03;0.43;;;;;;;;;;5089747;28;20456;-65
2023/12/22 04:33:07;;;;;;;0.35;0.20;;;;;;;;;;5071556;28;20085;-65
2023/12/22 04:35:33;;;;;;;2.10;0.40;;;;;;;;;;5089804;28;20040;-66
2023/12/22 04:37:58;;;;;;;0.85;0.50;;;;;;;;;;5089318;28;20162;-65
2023/12/22 04:40:23;;;;;;;1.85;0.50;;;;;;;;;;5089901;28;20161;-65
2023/12/22 04:42:49;;;;;;;3.25;0.50;;;;;;;;;;5088875;28;20044;-65
2023/12/22 04:45:14;;;;;;;0.30;0.20;;;;;;;;;;5063544;28;20510;-65
2023/12/22 04:47:40;;;;;;;2.05;0.40;;;;;;;;;;5089637;28;20032;-65
2023/12/22 04:50:05;;;;;;;1.88;0.50;;;;;;;;;;5090036;28;20051;-66
2023/12/22 04:52:31;;;;;;;1.60;0.77;;;;;;;;;;5089035;28;20046;-66
2023/12/22 04:54:56;;;;;;;1.25;0.30;;;;;;;;;;5085015;28;20491;-65
2023/12/22 04:57:22;;;;;;;1.20;0.47;;;;;;;;;;5089078;28;20032;-65
2023/12/22 04:59:47;;;;;;;1.27;0.20;;;;;;;;;;5089589;28;20036;-65
2023/12/22 05:02:12;;;;;;;0.82;0.35;;;;;;;;;;5089661;28;20059;-65
2023/12/22 05:04:38;;;;;;;1.25;0.30;;;;;;;;;;5089758;28;20059;-66
2023/12/22 05:07:06;;;;;;;2.88;0.50;;;;;;;;;;5089392;28;20028;-65
2023/12/22 05:09:33;;;;;;;3.63;0.73;;;;;;;;;;5088272;28;20032;-65
2023/12/22 05:11:58;;;;;;;2.20;0.45;;;;;;;;;;5089222;28;20036;-66
2023/12/22 05:14:23;;;;;;;0.98;0.40;;;;;;;;;;5089277;28;20451;-65
2023/12/22 05:16:49;;;;;;;1.02;0.40;;;;;;;;;;5090211;28;20659;-65
2023/12/22 05:19:15;;;;;;;1.15;0.32;;;;;;;;;;5093063;28;20130;-65
2023/12/22 05:21:40;;;;;;;0.88;0.30;;;;;;;;;;5092784;28;20028;-65
2023/12/22 05:24:05;;;;;;;3.03;0.57;;;;;;;;;;5074854;28;20360;-66
2023/12/22 05:26:31;;;;;;;1.80;0.52;;;;;;;;;;5093105;28;20491;-65
2023/12/22 05:28:57;;;;;;;1.85;0.38;;;;;;;;;;5092442;28;20044;-66
2023/12/22 05:31:22;;;;;;;1.15;0.60;;;;;;;;;;5092803;28;20043;-66
2023/12/22 05:33:48;;;;;;;4.70;0.80;;;;;;;;;;5092772;28;20071;-65
2023/12/22 05:36:13;;;;;;;0.98;0.50;;;;;;;;;;5074688;28;20527;-66
2023/12/22 05:38:39;;;;;;;3.42;0.77;;;;;;;;;;5092724;28;20119;-65
2023/12/22 05:41:06;;;;;;;2.75;0.60;;;;;;;;;;5092476;28;20043;-66
2023/12/22 05:43:32;;;;;;;1.90;0.40;;;;;;;;;;5092016;28;20115;-66
2023/12/22 05:45:58;;;;;;;5.60;0.70;;;;;;;;;;5089842;28;20036;-66
2023/12/22 05:48:23;;;;;;;5.65;1.08;;;;;;;;;;5092212;28;20065;-66
2023/12/22 05:50:49;;;;;;;3.40;0.55;;;;;;;;;;5092216;28;20082;-66
2023/12/22 05:53:15;;;;;;;1.55;0.52;;;;;;;;;;5092577;28;20468;-66
2023/12/22 05:55:40;;;;;;;1.35;0.38;;;;;;;;;;5088648;28;20498;-66
2023/12/22 05:58:05;;;;;;;5.53;0.52;;;;;;;;;;5087495;28;20036;-65
2023/12/22 06:00:31;;;;;;;2.58;0.47;;;;;;;;;;5091758;28;20078;-65
2023/12/22 06:02:56;;;;;;;1.27;0.40;;;;;;;;;;5092385;28;20079;-65
2023/12/22 06:05:22;;;;;;;1.38;0.40;;;;;;;;;;5091666;28;20036;-66
2023/12/22 06:07:47;;;;;;;1.35;0.50;;;;;;;;;;5073917;28;20040;-65
2023/12/22 06:10:12;;;;;;;2.97;0.80;;;;;;;;;;5092253;28;20138;-65
2023/12/22 06:12:38;;;;;;;3.45;0.60;;;;;;;;;;5091856;28;20074;-65
2023/12/22 06:15:04;;;;;;;3.50;0.43;;;;;;;;;;5092212;28;20416;-65
2023/12/22 06:17:29;;;;;;;4.75;0.60;;;;;;;;;;5091343;28;20027;-66
2023/12/22 06:19:54;;;;;;;2.17;0.75;;;;;;;;;;5091565;28;20040;-65
2023/12/22 06:22:21;;;;;;;4.70;0.68;;;;;;;;;;5091728;28;20029;-67
2023/12/22 06:24:46;;;;;;;7.78;0.82;;;;;;;;;;5091806;28;20506;-65
2023/12/22 06:27:11;;;;;;;2.30;0.50;;;;;;;;;;5090909;28;20036;-66
2023/12/22 06:29:38;;;;;;;3.08;0.63;;;;;;;;;;5091534;28;20028;-66
2023/12/22 06:32:05;;;;;;;3.95;0.70;;;;;;;;;;5091779;28;20119;-65
2023/12/22 06:34:31;;;;;;;4.32;0.57;;;;;;;;;;5087978;28;20496;-66
2023/12/22 06:36:57;;;;;;;0.98;0.50;;;;;;;;;;5091249;28;20071;-66
2023/12/22 06:39:22;;;;;;;1.85;0.60;;;;;;;;;;5091751;28;20123;-65
2023/12/22 06:41:47;;;;;;;3.00;0.57;;;;;;;;;;5091723;28;20464;-65
2023/12/22 06:44:13;;;;;;;2.58;0.68;;;;;;;;;;5091424;28;20416;-65
2023/12/22 06:46:38;;;;;;;4.00;1.00;;;;;;;;;;5070025;28;20044;-66
2023/12/22 06:49:04;;;;;;;1.33;0.52;;;;;;;;;;5090820;28;20535;-65
2023/12/22 06:51:31;;;;;;;1.88;0.60;;;;;;;;;;5064438;28;20039;-65
2023/12/22 06:53:57;;;;;;;3.10;0.80;;;;;;;;;;5091344;28;20112;-66
2023/12/22 06:56:24;;;;;;;5.03;0.73;;;;;;;;;;5090179;28;20123;-65
2023/12/22 06:58:50;;;;;;;4.55;0.90;;;;;;;;;;5090836;28;20399;-65
2023/12/22 07:01:23;;;;;;;6.15;0.93;;;;;;;;;;5091431;28;20131;-65
2023/12/22 07:03:49;;;;;;;3.38;0.82;;;;;;;;;;5090944;28;20020;-65
2023/12/22 07:06:19;;;;;;;1.38;0.68;;;;;;;;;;5090928;28;20641;-65
2023/12/22 07:08:56;;;;;;;2.22;0.90;;;;;;;;;;5079279;28;20032;-65
2023/12/22 07:11:21;;;;;;;2.38;0.63;;;;;;;;;;5089622;28;20572;-65
2023/12/22 07:13:47;;;;;;;8.38;0.82;;;;;;;;;;5090766;28;20040;-65
2023/12/22 07:16:12;;;;;;;4.32;0.82;;;;;;;;;;5090515;28;20061;-65
2023/12/22 07:18:38;;;;;;;3.22;0.80;;;;;;;;;;5090699;28;20057;-66
2023/12/22 07:21:03;;;;;;;8.45;1.00;;;;;;;;;;5088744;28;20067;-66
2023/12/22 07:23:29;;;;;;;7.28;1.00;;;;;;;;;;5090346;28;20062;-65
2023/12/22 07:25:54;;;;;;;3.17;0.63;;;;;;;;;;5089667;28;20028;-65
2023/12/22 07:28:19;;;;;;;5.03;0.85;;;;;;;;;;5090730;28;20067;-65
2023/12/22 07:30:45;;;;;;;4.63;1.10;;;;;;;;;;5090202;28;20088;-65
2023/12/22 07:33:10;;;;;;;2.25;0.52;;;;;;;;;;5090310;28;20036;-66
2023/12/22 07:35:35;;;;;;;3.78;1.10;;;;;;;;;;5090060;28;20131;-66
2023/12/22 07:38:02;;;;;;;7.15;1.30;;;;;;;;;;5090329;28;20036;-65
2023/12/22 07:40:30;;;;;;;5.25;1.10;;;;;;;;;;5089895;28;20441;-66
2023/12/22 07:42:55;;;;;;;4.90;1.13;;;;;;;;;;5090354;28;20101;-65
2023/12/22 07:45:21;;;;;;;11.35;1.88;;;;;;;;;;5090354;28;20089;-66
2023/12/22 07:47:46;;;;;;;6.30;1.27;;;;;;;;;;5088969;28;20043;-66
2023/12/22 07:50:11;;;;;;;7.30;1.13;;;;;;;;;;5090626;28;20035;-65
2023/12/22 07:52:38;;;;;;;11.40;1.42;;;;;;;;;;5089873;28;20054;-65
2023/12/22 07:55:09;;;;;;;6.22;1.17;;;;;;;;;;5088910;28;20167;-66
2023/12/22 08:00:56;;;;;;;9.98;1.30;;;;;;;;;;5089972;28;20162;-65
2023/12/22 08:03:21;;;;;;;7.82;1.08;;;;;;;;;;5089603;28;20148;-65
2023/12/22 08:05:46;;;;;;;5.70;1.38;;;;;;;;;;5086231;28;20031;-65
2023/12/22 08:08:12;;;;;;;8.50;1.23;;;;;;;;;;5088528;28;20040;-65
2023/12/22 08:10:37;;;;;;;6.32;1.02;;;;;;;;;;5089690;28;20118;-65
2023/12/22 08:13:03;;;;;;;5.63;1.00;;;;;;;;;;5089823;28;20039;-66
2023/12/22 08:15:28;;;;;;;5.47;1.63;;;;;;;;;;5089992;28;20173;-66
2023/12/22 08:17:54;;;;;;;5.60;0.85;;;;;;;;;;5089517;28;20075;-65
2023/12/22 08:20:20;;;;;;;6.28;0.90;;;;;;;;;;5090124;28;20028;-66
2023/12/22 08:22:49;;;;;;;6.55;1.08;;;;;;;;;;5089918;28;20157;-66
2023/12/22 08:25:15;;;;;;;8.10;1.80;;;;;;;;;;5089747;28;20521;-65
2023/12/22 08:27:41;;;;;;;4.93;1.25;;;;;;;;;;5090138;28;20032;-66
2023/12/22 08:30:08;;;;;;;4.53;1.20;;;;;;;;;;5089107;28;20561;-66
2023/12/22 08:32:33;;;;;;;7.03;1.23;;;;;;;;;;5088899;28;20051;-66
2023/12/22 08:34:58;;;;;;;10.10;1.63;;;;;;;;;;5088828;28;20028;-65
2023/12/22 08:37:24;;;;;;;4.35;1.00;;;;;;;;;;5088630;28;20038;-66
2023/12/22 08:39:50;;;;;;;6.30;1.20;;;;;;;;;;5088956;28;20466;-66
2023/12/22 08:42:16;;;;;;;6.25;1.23;;;;;;;;;;5082736;28;20094;-66
2023/12/22 08:44:42;;;;;;;6.15;1.20;;;;;;;;;;5088633;28;20076;-66
2023/12/22 08:47:07;;;;;;;6.00;1.30;;;;;;;;;;5088444;28;20032;-66
2023/12/22 08:49:32;;;;;;;7.50;1.00;;;;;;;;;;5087862;28;20460;-66
2023/12/22 08:51:58;;;;;;;8.10;1.10;;;;;;;;;;5086324;28;20036;-66
2023/12/22 08:54:23;;;;;;;5.18;1.42;;;;;;;;;;5078011;28;20040;-66
2023/12/22 08:56:48;;;;;;;4.88;0.90;;;;;;;;;;5091477;28;20486;-67
2023/12/22 08:59:14;;;;;;;5.70;1.08;;;;;;;;;;5090604;28;20028;-67
2023/12/22 09:01:40;;;;;;;8.80;1.27;;;;;;;;;;5092405;28;20032;-66
2023/12/22 09:04:06;;;;;;;6.03;1.02;;;;;;;;;;5093103;28;20028;-67
2023/12/22 09:06:31;;;;;;;8.20;1.00;;;;;;;;;;5092422;28;20099;-67
2023/12/22 09:08:57;;;;;;;4.15;1.08;;;;;;;;;;5093197;28;20048;-66
2023/12/22 09:11:25;;;;;;;7.13;1.27;;;;;;;;;;5091788;28;20036;-67
2023/12/22 09:13:50;;;;;;;1.17;0.63;;;;;;;;;;5087552;28;20055;-66
2023/12/22 09:16:21;;;;;;;6.22;1.30;;;;;;;;;;5088320;28;20082;-67
2023/12/22 09:18:46;;;;;;;5.70;0.90;;;;;;;;;;5090508;28;20024;-67
2023/12/22 09:21:19;;;;;;;7.05;1.10;;;;;;;;;;5092179;28;20047;-67
2023/12/22 09:23:46;;;;;;;5.32;1.50;;;;;;;;;;5058513;28;20069;-67
2023/12/22 09:26:15;;;;;;;5.97;1.38;;;;;;;;;;5090904;28;20035;-67
2023/12/22 09:28:41;;;;;;;4.20;1.30;;;;;;;;;;5065641;28;20077;-67
2023/12/22 09:31:07;;;;;;;11.10;1.70;;;;;;;;;;5089292;28;20027;-67
2023/12/22 09:33:32;;;;;;;10.27;1.48;;;;;;;;;;5090434;28;20122;-67
2023/12/22 09:35:58;;;;;;;4.68;1.20;;;;;;;;;;5089975;28;20475;-66
2023/12/22 09:38:23;;;;;;;4.72;0.82;;;;;;;;;;5090169;28;20123;-67
2023/12/22 09:40:50;;;;;;;5.30;1.10;;;;;;;;;;5089954;28;20059;-67
2023/12/22 09:43:15;;;;;;;5.53;1.02;;;;;;;;;;5090731;28;20060;-66
2023/12/22 09:45:41;;;;;;;4.68;1.60;;;;;;;;;;5079875;28;20511;-67
2023/12/22 09:48:07;;;;;;;8.65;1.40;;;;;;;;;;5069884;28;20024;-66
2023/12/22 09:50:34;;;;;;;6.10;1.08;;;;;;;;;;5090738;28;20028;-66
2023/12/22 09:53:00;;;;;;;7.30;1.20;;;;;;;;;;5064259;28;20036;-66
2023/12/22 09:55:26;;;;;;;4.05;1.20;;;;;;;;;;5065030;28;20040;-66
2023/12/22 09:57:52;;;;;;;6.03;1.48;;;;;;;;;;5072486;28;20060;-66
2023/12/22 10:00:18;;;;;;;4.25;1.02;;;;;;;;;;5071468;28;20063;-66
2023/12/22 10:02:45;;;;;;;5.78;1.10;;;;;;;;;;5089718;28;20559;-66
2023/12/22 10:05:12;;;;;;;6.70;1.30;;;;;;;;;;5071430;28;20032;-66
2023/12/22 10:07:38;;;;;;;6.03;1.10;;;;;;;;;;5068281;28;20076;-66
2023/12/22 10:10:04;;;;;;;8.65;1.40;;;;;;;;;;5067999;28;20502;-67
2023/12/22 10:12:31;;;;;;;7.43;1.42;;;;;;;;;;5073290;28;20400;-67
2023/12/22 10:14:59;;;;;;;6.22;1.10;;;;;;;;;;5070127;28;20085;-66
2023/12/22 10:17:25;;;;;;;5.28;0.77;;;;;;;;;;5072918;28;20024;-66
2023/12/22 10:19:50;;;;;;;7.22;1.13;;;;;;;;;;5070516;28;20034;-66
2023/12/22 10:22:15;;;;;;;9.32;1.52;;;;;;;;;;5085933;28;20089;-65
2023/12/22 10:24:47;;;;;;;11.63;1.48;;;;;;;;;;5084366;28;20059;-66
2023/12/22 10:27:14;;;;;;;8.02;1.30;;;;;;;;;;5087023;28;20055;-66
2023/12/22 10:29:40;;;;;;;9.70;1.15;;;;;;;;;;5086339;28;20040;-66
2023/12/22 10:32:07;;;;;;;4.97;1.10;;;;;;;;;;5068483;28;20591;-67
2023/12/22 10:34:32;;;;;;;6.18;1.80;;;;;;;;;;5086810;28;20365;-66
2023/12/22 10:37:01;;;;;;;9.95;1.50;;;;;;;;;;5086847;28;20051;-66
2023/12/22 10:39:28;;;;;;;9.82;1.52;;;;;;;;;;5072247;28;20375;-67
2023/12/22 10:41:53;;;;;;;6.03;1.23;;;;;;;;;;5087345;28;20036;-66
2023/12/22 10:44:19;;;;;;;3.95;1.10;;;;;;;;;;5068553;28;20112;-66
2023/12/22 10:46:47;;;;;;;5.78;1.23;;;;;;;;;;5069289;28;20067;-66
2023/12/22 10:49:12;;;;;;;4.25;1.10;;;;;;;;;;5066194;28;20032;-66
2023/12/22 10:51:38;;;;;;;5.80;1.20;;;;;;;;;;5076977;28;20051;-66
2023/12/22 10:54:05;;;;;;;8.55;1.50;;;;;;;;;;5054188;28;20035;-67
2023/12/22 10:56:31;;;;;;;3.88;1.08;;;;;;;;;;5086356;28;20043;-67
2023/12/22 10:58:58;;;;;;;11.02;1.42;;;;;;;;;;5084949;28;20115;-67
2023/12/22 11:01:29;;;;;;;5.15;1.23;;;;;;;;;;5067785;28;20051;-66
2023/12/22 11:03:58;;;;;;;5.47;1.13;;;;;;;;;;5087088;28;20056;-67
2023/12/22 11:06:26;;;;;;;7.72;1.45;;;;;;;;;;5079024;28;20189;-66
2023/12/22 11:08:53;;;;;;;8.32;1.58;;;;;;;;;;5085023;28;20210;-68
2023/12/22 11:11:29;;;;;;;7.18;1.33;;;;;;;;;;5085833;28;20114;-67
2023/12/22 11:13:56;;;;;;;6.88;1.38;;;;;;;;;;5074895;28;20039;-67
2023/12/22 11:16:22;;;;;;;7.82;1.20;;;;;;;;;;5085167;28;20403;-67
2023/12/22 11:18:48;;;;;;;5.53;0.90;;;;;;;;;;5064648;28;20056;-67
2023/12/22 11:21:14;;;;;;;6.90;1.30;;;;;;;;;;5084594;28;20087;-68
2023/12/22 11:23:40;;;;;;;6.18;1.30;;;;;;;;;;5065883;28;20040;-68
2023/12/22 11:26:05;;;;;;;3.03;1.00;;;;;;;;;;5085411;28;20032;-68
2023/12/22 11:28:32;;;;;;;4.63;1.00;;;;;;;;;;5068051;28;20028;-68
2023/12/22 11:30:58;;;;;;;9.82;1.30;;;;;;;;;;5067858;28;20065;-68
2023/12/22 11:33:27;;;;;;;9.35;1.48;;;;;;;;;;5085030;28;20059;-68
2023/12/22 11:35:55;;;;;;;5.80;1.20;;;;;;;;;;5082167;28;20086;-67
2023/12/22 11:38:20;;;;;;;8.32;1.52;;;;;;;;;;5067031;28;20035;-68
2023/12/22 11:40:47;;;;;;;12.18;1.48;;;;;;;;;;5083913;28;20036;-67
2023/12/22 11:43:12;;;;;;;10.02;1.85;;;;;;;;;;5066457;28;20822;-68
2023/12/22 11:45:38;;;;;;;7.00;1.05;;;;;;;;;;5068447;28;20083;-68
2023/12/22 11:48:11;;;;;;;10.00;1.65;;;;;;;;;;5074536;28;20548;-67
2023/12/22 11:50:36;;;;;;;6.88;1.70;;;;;;;;;;5057294;28;20043;-67
2023/12/22 11:53:22;;;;;;;8.88;1.40;;;;;;;;;;5081144;28;20084;-68
2023/12/22 11:56:08;;;;;;;12.52;1.75;;;;;;;;;;5076751;28;20047;-67
2023/12/22 11:58:38;;;;;;;6.13;1.98;;;;;;;;;;5083510;28;20027;-67
2023/12/22 12:01:08;;;;;;;5.57;1.40;;;;;;;;;;5065754;28;20036;-67
2023/12/22 12:03:38;;;;;;;11.60;1.95;;;;;;;;;;5083421;28;20024;-67
2023/12/22 12:06:13;;;;;;;13.80;1.63;;;;;;;;;;5082289;28;20032;-67
2023/12/22 12:08:38;;;;;;;10.18;1.45;;;;;;;;;;5084293;28;20042;-67
2023/12/22 12:11:04;;;;;;;5.40;1.15;;;;;;;;;;5068331;28;20044;-67
2023/12/22 12:13:31;;;;;;;5.82;1.25;;;;;;;;;;5067326;28;20616;-67
2023/12/22 12:15:59;;;;;;;9.68;1.60;;;;;;;;;;5054331;28;20036;-67
2023/12/22 12:18:27;;;;;;;7.70;1.38;;;;;;;;;;5084900;28;20818;-67
2023/12/22 12:20:53;;;;;;;5.20;1.30;;;;;;;;;;5085211;28;20468;-67
2023/12/22 12:23:18;;;;;;;7.88;1.60;;;;;;;;;;5067702;28;20077;-67
2023/12/22 12:25:43;;;;;;;6.65;1.55;;;;;;;;;;5086289;28;20048;-67
2023/12/22 12:28:09;;;;;;;5.70;1.55;;;;;;;;;;5088350;28;20032;-68
2023/12/22 12:30:35;;;;;;;8.23;1.30;;;;;;;;;;5081162;28;20603;-66
2023/12/22 12:33:11;;;;;;;5.22;1.70;;;;;;;;;;5074097;28;20623;-67
2023/12/22 12:35:41;;;;;;;11.52;1.70;;;;;;;;;;5088487;28;20435;-67
2023/12/22 12:38:06;;;;;;;9.52;1.70;;;;;;;;;;5088677;28;20039;-67
2023/12/22 12:40:33;;;;;;;6.22;1.55;;;;;;;;;;5070423;28;20031;-67
2023/12/22 12:43:00;;;;;;;10.65;1.40;;;;;;;;;;5071681;28;20034;-68
2023/12/22 12:45:26;;;;;;;9.75;1.30;;;;;;;;;;5089923;28;20054;-67
2023/12/22 12:47:56;;;;;;;4.68;1.00;;;;;;;;;;5089257;28;20048;-67
2023/12/22 12:50:23;;;;;;;13.85;1.73;;;;;;;;;;5089586;28;20129;-67
2023/12/22 12:52:49;;;;;;;9.07;1.38;;;;;;;;;;5086932;28;20631;-67
2023/12/22 12:55:18;;;;;;;7.53;1.60;;;;;;;;;;5065589;28;20032;-66
2023/12/22 12:57:43;;;;;;;9.23;1.77;;;;;;;;;;5088128;28;20040;-67
2023/12/22 13:00:09;;;;;;;9.05;1.50;;;;;;;;;;5088856;28;20043;-67
2023/12/22 13:02:36;;;;;;;10.18;1.50;;;;;;;;;;5085682;28;20051;-66
2023/12/22 13:05:04;;;;;;;4.03;1.10;;;;;;;;;;5068875;28;20054;-67
2023/12/22 13:07:30;;;;;;;6.93;1.48;;;;;;;;;;5086013;28;20169;-67
2023/12/22 13:09:56;;;;;;;6.78;0.93;;;;;;;;;;5068906;28;20115;-67
2023/12/22 13:12:23;;;;;;;9.63;1.55;;;;;;;;;;5087153;28;20105;-67
2023/12/22 13:14:48;;;;;;;6.47;1.08;;;;;;;;;;5089144;28;20399;-67
2023/12/22 13:17:13;;;;;;;7.28;1.30;;;;;;;;;;5093160;28;20028;-67
2023/12/22 13:19:39;;;;;;;11.57;1.33;;;;;;;;;;5086810;28;20387;-67
2023/12/22 13:22:04;;;;;;;8.50;1.48;;;;;;;;;;5087446;28;20036;-67
2023/12/22 13:24:30;;;;;;;5.00;0.77;;;;;;;;;;5072683;28;20486;-67
2023/12/22 13:27:03;;;;;;;7.60;2.00;;;;;;;;;;5096550;28;20036;-67
2023/12/22 13:29:29;;;;;;;6.68;1.27;;;;;;;;;;5092112;28;20058;-67
2023/12/22 13:31:55;;;;;;;4.15;1.05;;;;;;;;;;5091755;28;20032;-67
2023/12/22 13:34:21;;;;;;;5.43;1.10;;;;;;;;;;5068805;28;20040;-67
2023/12/22 13:36:46;;;;;;;8.95;1.58;;;;;;;;;;5087761;28;20047;-67
2023/12/22 13:39:12;;;;;;;6.43;1.00;;;;;;;;;;5092937;28;20035;-66
2023/12/22 13:41:45;;;;;;;7.82;1.50;;;;;;;;;;5090411;28;20127;-67
2023/12/22 13:44:11;;;;;;;8.23;1.03;;;;;;;;;;5094714;28;20055;-66
2023/12/22 13:46:36;;;;;;;8.05;1.25;;;;;;;;;;5092097;28;20116;-67
2023/12/22 13:49:02;;;;;;;10.07;1.60;;;;;;;;;;5091405;28;20384;-67
2023/12/22 13:51:38;;;;;;;7.68;0.95;;;;;;;;;;5091705;28;20044;-66
2023/12/22 13:54:04;;;;;;;5.28;0.98;;;;;;;;;;5091206;28;20074;-66
2023/12/22 13:56:35;;;;;;;5.13;1.02;;;;;;;;;;5074097;28;20680;-66
2023/12/22 13:59:00;;;;;;;6.25;1.63;;;;;;;;;;5091462;28;20028;-67
2023/12/22 14:01:26;;;;;;;6.07;1.33;;;;;;;;;;5081450;28;20116;-66
2023/12/22 14:03:51;;;;;;;7.35;1.33;;;;;;;;;;5090421;28;20035;-67
2023/12/22 14:06:17;;;;;;;5.80;1.20;;;;;;;;;;5071820;28;20036;-66
2023/12/22 14:08:43;;;;;;;7.15;1.52;;;;;;;;;;5085326;28;20040;-66
2023/12/22 14:11:08;;;;;;;5.28;1.00;;;;;;;;;;5086515;28;20044;-66
2023/12/22 14:13:38;;;;;;;3.03;0.90;;;;;;;;;;5090071;28;20174;-66
2023/12/22 14:16:05;;;;;;;3.50;0.90;;;;;;;;;;5091209;28;20522;-66
2023/12/22 14:18:30;;;;;;;4.30;1.08;;;;;;;;;;5088620;28;20430;-66
2023/12/22 14:20:56;;;;;;;3.22;0.93;;;;;;;;;;5090941;28;20028;-67
2023/12/22 14:23:21;;;;;;;4.57;0.90;;;;;;;;;;5090834;28;20036;-66
2023/12/22 14:25:47;;;;;;;9.88;1.23;;;;;;;;;;5094415;28;20054;-66
2023/12/22 14:28:12;;;;;;;2.13;0.75;;;;;;;;;;5096770;28;20039;-67
2023/12/22 14:30:37;;;;;;;8.02;1.00;;;;;;;;;;5091164;28;20490;-66
2023/12/22 14:33:03;;;;;;;5.28;0.90;;;;;;;;;;5090005;28;20543;-66
2023/12/22 14:35:28;;;;;;;2.30;0.93;;;;;;;;;;5090635;28;20107;-66
2023/12/22 14:37:53;;;;;;;4.85;1.55;;;;;;;;;;5091519;28;20031;-67
2023/12/22 14:40:19;;;;;;;8.63;0.95;;;;;;;;;;5091533;28;20035;-66